createdAt,value
2022-09-22T00:00:47.932Z,7.47
2022-09-22T00:01:48.306Z,7.51
2022-09-22T00:02:48.028Z,7.55
2022-09-22T00:03:49.236Z,7.58
2022-09-22T00:04:49.124Z,7.48
2022-09-22T00:05:49.456Z,7.46
2022-09-22T00:06:50.083Z,7.44
2022-09-22T00:07:50.714Z,7.43
2022-09-22T00:08:51.928Z,7.44
2022-09-22T00:09:52.491Z,7.48
2022-09-22T00:10:52.756Z,7.48
2022-09-22T00:11:53.240Z,7.44
2022-09-22T00:12:54.141Z,7.44
2022-09-22T00:13:55.048Z,7.43
2022-09-22T00:14:54.935Z,7.36
2022-09-22T00:15:55.909Z,7.37
2022-09-22T00:16:56.467Z,7.41
2022-09-22T00:17:56.771Z,7.36
2022-09-22T00:18:57.960Z,7.39
2022-09-22T00:19:58.360Z,7.33
2022-09-22T00:20:58.390Z,7.22
2022-09-22T00:21:58.998Z,7.28
2022-09-22T00:23:00.203Z,7.28
2022-09-22T00:24:00.718Z,7.23
2022-09-22T00:25:01.163Z,7.22
2022-09-22T00:26:02.405Z,7.26
2022-09-22T00:27:02.309Z,7.26
2022-09-22T00:28:03.521Z,7.25
2022-09-22T00:29:04.422Z,7.23
2022-09-22T00:30:04.855Z,7.26
2022-09-22T00:31:06.258Z,7.25
2022-09-22T00:32:12.902Z,7.23
2022-09-22T00:33:07.513Z,7.25
2022-09-22T00:34:08.121Z,7.22
2022-09-22T00:35:08.032Z,7.19
2022-09-22T00:36:08.618Z,7.22
2022-09-22T00:37:09.519Z,7.28
2022-09-22T00:38:09.582Z,7.23
2022-09-22T00:39:10.179Z,7.23
2022-09-22T00:40:11.082Z,7.15
2022-09-22T00:41:11.552Z,7.18
2022-09-22T00:42:11.862Z,7.14
2022-09-22T00:43:12.770Z,7.13
2022-09-22T00:44:13.249Z,7.18
2022-09-22T00:45:13.257Z,7.04
2022-09-22T00:46:13.934Z,7.08
2022-09-22T00:47:14.987Z,7.05
2022-09-22T00:48:15.593Z,7.07
2022-09-22T00:49:16.500Z,7.13
2022-09-22T00:50:17.251Z,7.14
2022-09-22T00:51:17.308Z,7.04
2022-09-22T00:52:18.494Z,7.05
2022-09-22T00:53:19.134Z,6.96
2022-09-22T00:54:19.723Z,6.96
2022-09-22T00:55:20.632Z,7
2022-09-22T00:56:20.857Z,6.93
2022-09-22T00:57:20.492Z,6.9
2022-09-22T00:58:20.848Z,6.97
2022-09-22T00:59:21.736Z,6.89
2022-09-22T01:00:22.715Z,6.85
2022-09-22T01:01:24.312Z,6.86
2022-09-22T01:02:24.178Z,6.92
2022-09-22T01:03:30.281Z,6.92
2022-09-22T01:04:25.514Z,6.8
2022-09-22T01:05:26.129Z,6.82
2022-09-22T01:06:26.758Z,6.85
2022-09-22T01:07:27.646Z,6.77
2022-09-22T01:08:28.300Z,6.74
2022-09-22T01:09:29.308Z,6.78
2022-09-22T01:10:30.018Z,6.87
2022-09-22T01:11:30.951Z,6.86
2022-09-22T01:12:31.551Z,6.77
2022-09-22T01:13:32.170Z,6.89
2022-09-22T01:14:32.478Z,6.87
2022-09-22T01:15:33.368Z,6.83
2022-09-22T01:16:34.559Z,6.78
2022-09-22T01:17:34.902Z,6.87
2022-09-22T01:18:36.082Z,6.77
2022-09-22T01:19:36.578Z,6.85
2022-09-22T01:20:36.972Z,6.8
2022-09-22T01:21:37.859Z,6.68
2022-09-22T01:22:37.762Z,6.7
2022-09-22T01:23:38.692Z,6.71
2022-09-22T01:24:39.569Z,6.74
2022-09-22T01:25:40.174Z,6.74
2022-09-22T01:26:40.392Z,6.77
2022-09-22T01:27:40.574Z,6.71
2022-09-22T01:28:40.476Z,6.71
2022-09-22T01:29:41.385Z,6.74
2022-09-22T01:30:41.803Z,6.72
2022-09-22T01:31:42.705Z,6.74
2022-09-22T01:32:43.073Z,6.72
2022-09-22T01:33:43.686Z,6.83
2022-09-22T01:34:44.012Z,6.68
2022-09-22T01:35:44.621Z,6.67
2022-09-22T01:36:44.503Z,6.65
2022-09-22T01:37:45.109Z,6.64
2022-09-22T01:38:46.042Z,6.7
2022-09-22T01:39:47.014Z,6.6
2022-09-22T01:40:47.873Z,6.74
2022-09-22T01:41:48.435Z,6.6
2022-09-22T01:42:48.340Z,6.62
2022-09-22T01:43:49.536Z,6.6
2022-09-22T01:44:49.445Z,6.59
2022-09-22T01:45:50.134Z,6.68
2022-09-22T01:46:50.267Z,6.65
2022-09-22T01:47:50.937Z,6.67
2022-09-22T01:48:50.848Z,6.57
2022-09-22T01:49:51.464Z,6.54
2022-09-22T01:50:52.136Z,6.71
2022-09-22T01:51:53.042Z,6.71
2022-09-22T01:52:53.687Z,6.65
2022-09-22T01:53:54.049Z,6.71
2022-09-22T01:54:55.097Z,6.71
2022-09-22T01:55:55.721Z,6.7
2022-09-22T01:56:56.658Z,6.74
2022-09-22T01:57:57.540Z,6.71
2022-09-22T01:58:57.745Z,6.72
2022-09-22T01:59:58.751Z,6.74
2022-09-22T02:00:59.440Z,6.77
2022-09-22T02:02:00.138Z,6.74
2022-09-22T02:03:00.539Z,6.71
2022-09-22T02:04:01.196Z,6.75
2022-09-22T02:05:02.105Z,6.75
2022-09-22T02:06:03.299Z,6.74
2022-09-22T02:07:03.182Z,6.7
2022-09-22T02:08:03.101Z,6.75
2022-09-22T02:09:04.026Z,6.72
2022-09-22T02:10:04.923Z,6.67
2022-09-22T02:11:05.316Z,6.67
2022-09-22T02:12:06.551Z,6.57
2022-09-22T02:13:07.450Z,6.68
2022-09-22T02:14:08.118Z,6.62
2022-09-22T02:15:09.077Z,6.7
2022-09-22T02:16:09.224Z,6.64
2022-09-22T02:17:10.050Z,6.6
2022-09-22T02:18:10.654Z,6.65
2022-09-22T02:19:18.854Z,6.65
2022-09-22T02:20:12.044Z,6.59
2022-09-22T02:21:12.473Z,6.54
2022-09-22T02:22:12.676Z,6.59
2022-09-22T02:23:13.604Z,6.59
2022-09-22T02:24:14.238Z,6.65
2022-09-22T02:25:14.406Z,6.59
2022-09-22T02:26:14.347Z,6.54
2022-09-22T02:27:14.591Z,6.62
2022-09-22T02:28:15.495Z,6.54
2022-09-22T02:29:16.121Z,6.59
2022-09-22T02:30:17.030Z,6.52
2022-09-22T02:31:26.943Z,6.6
2022-09-22T02:32:28.293Z,6.64
2022-09-22T02:33:28.475Z,6.6
2022-09-22T02:34:28.666Z,6.56
2022-09-22T02:35:29.549Z,6.6
2022-09-22T02:36:30.443Z,6.6
2022-09-22T02:37:31.049Z,6.47
2022-09-22T02:38:31.927Z,6.53
2022-09-22T02:39:32.561Z,6.47
2022-09-22T02:40:33.790Z,6.43
2022-09-22T02:41:34.757Z,6.41
2022-09-22T02:42:34.690Z,6.44
2022-09-22T02:43:35.274Z,6.38
2022-09-22T02:44:36.156Z,6.35
2022-09-22T02:45:36.479Z,6.32
2022-09-22T02:46:37.605Z,6.31
2022-09-22T02:47:37.651Z,6.32
2022-09-22T02:48:38.538Z,6.35
2022-09-22T02:49:39.445Z,6.36
2022-09-22T02:50:39.478Z,6.32
2022-09-22T02:51:40.602Z,6.35
2022-09-22T02:52:41.230Z,6.35
2022-09-22T02:53:41.819Z,6.41
2022-09-22T02:54:42.026Z,6.35
2022-09-22T02:55:42.920Z,6.34
2022-09-22T02:56:44.097Z,6.31
2022-09-22T02:57:44.625Z,6.32
2022-09-22T02:58:44.240Z,6.29
2022-09-22T02:59:45.014Z,6.31
2022-09-22T03:00:45.617Z,6.22
2022-09-22T03:01:46.958Z,6.28
2022-09-22T03:02:46.790Z,6.34
2022-09-22T03:03:47.397Z,6.2
2022-09-22T03:04:48.103Z,6.22
2022-09-22T03:05:49.258Z,6.2
2022-09-22T03:06:50.152Z,6.2
2022-09-22T03:07:51.059Z,6.17
2022-09-22T03:08:50.972Z,5.99
2022-09-22T03:09:51.633Z,6.13
2022-09-22T03:10:52.530Z,6.07
2022-09-22T03:11:53.506Z,6.07
2022-09-22T03:13:20.824Z,6.06
2022-09-22T03:13:54.457Z,6.07
2022-09-22T03:14:55.675Z,6.07
2022-09-22T03:15:57.022Z,6.02
2022-09-22T03:16:57.022Z,5.97
2022-09-22T03:17:56.931Z,5.91
2022-09-22T03:18:57.563Z,5.95
2022-09-22T03:19:57.897Z,5.99
2022-09-22T03:20:58.784Z,5.91
2022-09-22T03:21:59.779Z,5.97
2022-09-22T03:23:00.384Z,5.9
2022-09-22T03:24:00.573Z,5.94
2022-09-22T03:25:01.618Z,5.84
2022-09-22T03:26:02.226Z,5.87
2022-09-22T03:27:02.471Z,5.74
2022-09-22T03:28:02.716Z,5.77
2022-09-22T03:29:03.604Z,5.74
2022-09-22T03:30:03.221Z,5.64
2022-09-22T03:31:04.345Z,5.61
2022-09-22T03:32:04.577Z,5.62
2022-09-22T03:33:05.180Z,5.61
2022-09-22T03:34:06.062Z,5.58
2022-09-22T03:35:06.970Z,5.64
2022-09-22T03:36:07.455Z,5.58
2022-09-22T03:37:07.714Z,5.61
2022-09-22T03:38:07.346Z,5.65
2022-09-22T03:39:08.956Z,5.59
2022-09-22T03:40:08.835Z,5.62
2022-09-22T03:41:09.218Z,5.69
2022-09-22T03:42:09.628Z,5.64
2022-09-22T03:43:16.917Z,5.7
2022-09-22T03:44:10.826Z,5.67
2022-09-22T03:45:11.729Z,5.65
2022-09-22T03:46:11.742Z,5.67
2022-09-22T03:47:11.917Z,5.7
2022-09-22T03:48:13.096Z,5.62
2022-09-22T03:49:13.702Z,5.59
2022-09-22T03:50:14.604Z,5.59
2022-09-22T03:51:15.217Z,5.54
2022-09-22T03:52:15.918Z,5.54
2022-09-22T03:53:16.407Z,5.38
2022-09-22T03:54:16.609Z,5.4
2022-09-22T03:55:17.515Z,5.46
2022-09-22T03:56:17.404Z,5.38
2022-09-22T03:57:18.016Z,5.4
2022-09-22T03:58:19.243Z,5.38
2022-09-22T03:59:20.148Z,5.36
2022-09-22T04:00:20.333Z,5.37
2022-09-22T04:01:21.438Z,5.37
2022-09-22T04:02:21.983Z,5.41
2022-09-22T04:03:22.407Z,5.41
2022-09-22T04:04:23.329Z,5.43
2022-09-22T04:05:24.233Z,5.43
2022-09-22T04:06:24.841Z,5.43
2022-09-22T04:07:25.161Z,5.51
2022-09-22T04:08:25.766Z,5.51
2022-09-22T04:09:25.974Z,5.51
2022-09-22T04:10:26.305Z,5.47
2022-09-22T04:11:26.478Z,5.54
2022-09-22T04:12:26.896Z,5.58
2022-09-22T04:13:28.121Z,5.58
2022-09-22T04:14:28.539Z,5.55
2022-09-22T04:15:28.152Z,5.58
2022-09-22T04:16:29.687Z,5.46
2022-09-22T04:17:29.766Z,5.55
2022-09-22T04:18:30.964Z,5.47
2022-09-22T04:19:30.870Z,5.47
2022-09-22T04:20:31.809Z,5.58
2022-09-22T04:21:31.839Z,5.49
2022-09-22T04:22:32.257Z,5.54
2022-09-22T04:23:32.461Z,5.52
2022-09-22T04:24:32.658Z,5.55
2022-09-22T04:25:33.170Z,5.56
2022-09-22T04:26:33.069Z,5.51
2022-09-22T04:27:33.465Z,5.47
2022-09-22T04:28:33.974Z,5.41
2022-09-22T04:29:34.583Z,5.44
2022-09-22T04:30:35.138Z,5.52
2022-09-22T04:31:35.565Z,5.55
2022-09-22T04:32:36.549Z,5.43
2022-09-22T04:33:36.872Z,5.58
2022-09-22T04:34:37.477Z,5.58
2022-09-22T04:35:37.376Z,5.55
2022-09-22T04:36:38.260Z,5.51
2022-09-22T04:37:38.453Z,5.54
2022-09-22T04:38:39.349Z,5.54
2022-09-22T04:39:39.991Z,5.52
2022-09-22T04:40:41.140Z,5.56
2022-09-22T04:41:41.430Z,5.59
2022-09-22T04:42:41.836Z,5.64
2022-09-22T04:43:43.367Z,5.7
2022-09-22T04:44:43.566Z,5.62
2022-09-22T04:45:45.946Z,5.55
2022-09-22T04:46:44.930Z,5.62
2022-09-22T04:47:45.943Z,5.67
2022-09-22T04:48:47.148Z,5.76
2022-09-22T04:49:46.776Z,5.67
2022-09-22T04:50:53.495Z,5.73
2022-09-22T04:51:48.683Z,5.7
2022-09-22T04:52:49.660Z,5.77
2022-09-22T04:53:50.567Z,5.7
2022-09-22T04:54:50.904Z,5.61
2022-09-22T04:55:51.833Z,5.55
2022-09-22T04:56:52.295Z,5.56
2022-09-22T04:57:53.200Z,5.54
2022-09-22T04:58:53.435Z,5.58
2022-09-22T04:59:54.044Z,5.46
2022-09-22T05:00:54.471Z,5.55
2022-09-22T05:01:54.896Z,5.56
2022-09-22T05:02:55.163Z,5.58
2022-09-22T05:03:54.928Z,5.44
2022-09-22T05:04:55.960Z,5.55
2022-09-22T05:05:56.902Z,5.56
2022-09-22T05:06:57.083Z,5.55
2022-09-22T05:07:57.272Z,5.54
2022-09-22T05:08:58.228Z,5.58
2022-09-22T05:09:58.835Z,5.59
2022-09-22T05:10:58.788Z,5.61
2022-09-22T05:11:59.379Z,5.56
2022-09-22T05:13:00.367Z,5.61
2022-09-22T05:14:00.621Z,5.69
2022-09-22T05:15:00.526Z,5.64
2022-09-22T05:16:01.672Z,5.59
2022-09-22T05:17:01.993Z,5.65
2022-09-22T05:18:02.626Z,5.62
2022-09-22T05:19:03.515Z,5.58
2022-09-22T05:20:03.711Z,5.64
2022-09-22T05:21:04.321Z,5.59
2022-09-22T05:22:05.506Z,5.59
2022-09-22T05:23:06.214Z,5.64
2022-09-22T05:24:07.142Z,5.69
2022-09-22T05:25:06.816Z,5.74
2022-09-22T05:26:08.049Z,5.67
2022-09-22T05:27:08.943Z,5.7
2022-09-22T05:28:09.134Z,5.69
2022-09-22T05:29:09.224Z,5.72
2022-09-22T05:30:09.584Z,5.69
2022-09-22T05:31:10.790Z,5.7
2022-09-22T05:32:11.883Z,5.74
2022-09-22T05:33:12.870Z,5.7
2022-09-22T05:34:13.350Z,5.74
2022-09-22T05:35:12.968Z,5.7
2022-09-22T05:36:13.888Z,5.67
2022-09-22T05:37:14.220Z,5.67
2022-09-22T05:38:15.428Z,5.73
2022-09-22T05:39:15.357Z,5.72
2022-09-22T05:40:16.560Z,5.7
2022-09-22T05:41:17.182Z,5.65
2022-09-22T05:42:17.803Z,5.59
2022-09-22T05:43:17.942Z,5.7
2022-09-22T05:44:18.463Z,5.65
2022-09-22T05:45:18.770Z,5.69
2022-09-22T05:46:19.906Z,5.64
2022-09-22T05:47:20.576Z,5.69
2022-09-22T05:48:20.888Z,5.7
2022-09-22T05:49:22.028Z,5.74
2022-09-22T05:50:21.656Z,5.74
2022-09-22T05:51:22.543Z,5.8
2022-09-22T05:52:23.724Z,5.73
2022-09-22T05:53:24.469Z,5.8
2022-09-22T05:54:29.028Z,5.9
2022-09-22T05:55:25.643Z,5.88
2022-09-22T05:56:26.627Z,6.15
2022-09-22T05:57:27.534Z,6.62
2022-09-22T05:58:28.738Z,6.97
2022-09-22T05:59:29.272Z,7.26
2022-09-22T06:00:29.476Z,7.32
2022-09-22T06:01:30.983Z,7.46
2022-09-22T06:02:32.114Z,7.67
2022-09-22T06:03:30.796Z,7.69
2022-09-22T06:04:31.688Z,7.91
2022-09-22T06:05:32.056Z,8.08
2022-09-22T06:06:32.455Z,8.2
2022-09-22T06:07:32.065Z,8.28
2022-09-22T06:08:33.682Z,8.31
2022-09-22T06:09:34.286Z,8.28
2022-09-22T06:10:34.478Z,8.57
2022-09-22T06:11:35.399Z,8.77
2022-09-22T06:12:35.888Z,8.95
2022-09-22T06:13:36.874Z,9.09
2022-09-22T06:14:37.400Z,9.29
2022-09-22T06:15:38.039Z,9.54
2022-09-22T06:16:39.117Z,9.72
2022-09-22T06:17:39.142Z,9.74
2022-09-22T06:18:39.477Z,9.74
2022-09-22T06:19:40.686Z,9.72
2022-09-22T06:20:40.583Z,9.76
2022-09-22T06:21:41.218Z,9.62
2022-09-22T06:22:42.418Z,9.66
2022-09-22T06:23:48.572Z,9.55
2022-09-22T06:24:43.114Z,9.48
2022-09-22T06:25:43.704Z,9.34
2022-09-22T06:26:44.644Z,9.24
2022-09-22T06:27:45.566Z,9.27
2022-09-22T06:28:46.197Z,9.13
2022-09-22T06:29:46.720Z,9.08
2022-09-22T06:30:46.624Z,9.08
2022-09-22T06:31:47.719Z,9.05
2022-09-22T06:32:48.502Z,8.97
2022-09-22T06:33:48.964Z,8.96
2022-09-22T06:34:50.411Z,9.27
2022-09-22T06:35:50.757Z,9.49
2022-09-22T06:36:50.953Z,9.73
2022-09-22T06:37:50.861Z,10
2022-09-22T06:38:51.465Z,10.42
2022-09-22T06:39:52.393Z,10.77
2022-09-22T06:40:52.588Z,11.12
2022-09-22T06:41:52.334Z,11.41
2022-09-22T06:42:53.258Z,11.58
2022-09-22T06:43:54.260Z,11.71
2022-09-22T06:44:54.223Z,11.93
2022-09-22T06:45:55.602Z,12.1
2022-09-22T06:46:55.438Z,12.3
2022-09-22T06:47:56.332Z,12.36
2022-09-22T06:48:56.335Z,12.48
2022-09-22T06:49:56.375Z,12.47
2022-09-22T06:50:57.565Z,12.48
2022-09-22T06:51:58.034Z,12.35
2022-09-22T06:52:58.358Z,12.29
2022-09-22T06:53:59.154Z,12.2
2022-09-22T06:54:59.506Z,12.2
2022-09-22T06:56:00.139Z,12.07
2022-09-22T06:56:59.500Z,12.07
2022-09-22T06:58:00.410Z,12.08
2022-09-22T06:59:15.875Z,12.08
2022-09-22T07:00:01.205Z,12.08
2022-09-22T07:01:09.754Z,12.03
2022-09-22T07:02:02.716Z,12.08
2022-09-22T07:03:03.206Z,12.11
2022-09-22T07:04:03.242Z,12.17
2022-09-22T07:05:04.433Z,12.17
2022-09-22T07:06:05.359Z,12.15
2022-09-22T07:07:05.459Z,12.25
2022-09-22T07:08:05.965Z,12.25
2022-09-22T07:09:06.620Z,12.23
2022-09-22T07:10:06.944Z,12.25
2022-09-22T07:11:06.868Z,12.08
2022-09-22T07:12:08.078Z,12.05
2022-09-22T07:13:08.983Z,11.91
2022-09-22T07:14:09.765Z,11.83
2022-09-22T07:15:10.264Z,11.59
2022-09-22T07:16:10.782Z,11.52
2022-09-22T07:17:11.552Z,11.49
2022-09-22T07:18:11.748Z,11.48
2022-09-22T07:19:12.668Z,11.43
2022-09-22T07:20:12.887Z,11.49
2022-09-22T07:21:13.443Z,11.45
2022-09-22T07:22:14.159Z,11.4
2022-09-22T07:23:14.071Z,11.37
2022-09-22T07:24:14.926Z,11.33
2022-09-22T07:25:15.842Z,11.3
2022-09-22T07:26:16.519Z,11.13
2022-09-22T07:27:17.163Z,11.05
2022-09-22T07:28:18.341Z,10.94
2022-09-22T07:29:17.958Z,10.95
2022-09-22T07:30:18.883Z,10.92
2022-09-22T07:31:19.391Z,10.98
2022-09-22T07:32:19.597Z,11.02
2022-09-22T07:33:20.083Z,11.15
2022-09-22T07:34:21.074Z,11.19
2022-09-22T07:35:21.672Z,11.19
2022-09-22T07:36:22.862Z,11.13
2022-09-22T07:37:23.205Z,11.2
2022-09-22T07:38:24.405Z,11.31
2022-09-22T07:39:25.040Z,11.37
2022-09-22T07:40:25.846Z,11.58
2022-09-22T07:41:26.049Z,11.65
2022-09-22T07:42:26.987Z,11.76
2022-09-22T07:43:27.164Z,11.76
2022-09-22T07:44:27.815Z,11.78
2022-09-22T07:45:28.303Z,11.78
2022-09-22T07:46:28.679Z,11.88
2022-09-22T07:47:28.767Z,11.88
2022-09-22T07:48:29.405Z,12.03
2022-09-22T07:49:29.991Z,12
2022-09-22T07:50:30.206Z,12.03
2022-09-22T07:51:30.121Z,12.1
2022-09-22T07:52:30.343Z,12.07
2022-09-22T07:53:30.557Z,12.11
2022-09-22T07:54:31.531Z,12.07
2022-09-22T07:55:32.040Z,12.1
2022-09-22T07:56:32.524Z,12.05
2022-09-22T07:57:32.453Z,11.95
2022-09-22T07:58:33.069Z,11.89
2022-09-22T07:59:34.261Z,11.86
2022-09-22T08:00:35.631Z,11.85
2022-09-22T08:01:34.992Z,11.74
2022-09-22T08:02:36.327Z,11.78
2022-09-22T08:03:36.517Z,11.88
2022-09-22T08:04:36.939Z,11.78
2022-09-22T08:05:37.852Z,11.88
2022-09-22T08:06:37.764Z,11.89
2022-09-22T08:07:37.961Z,11.97
2022-09-22T08:08:38.876Z,11.97
2022-09-22T08:09:39.380Z,12.08
2022-09-22T08:10:39.571Z,12.03
2022-09-22T08:11:39.497Z,12.03
2022-09-22T08:12:39.732Z,12
2022-09-22T08:13:40.613Z,12.03
2022-09-22T08:14:41.035Z,12.08
2022-09-22T08:15:41.920Z,12.08
2022-09-22T08:16:42.387Z,12.14
2022-09-22T08:17:43.177Z,12.08
2022-09-22T08:18:43.508Z,12.15
2022-09-22T08:19:44.706Z,12.2
2022-09-22T08:20:50.372Z,12.23
2022-09-22T08:21:54.094Z,12.2
2022-09-22T08:22:46.549Z,12.3
2022-09-22T08:23:46.733Z,12.32
2022-09-22T08:24:47.800Z,12.12
2022-09-22T08:25:47.824Z,12.15
2022-09-22T08:26:54.059Z,12.3
2022-09-22T08:27:49.020Z,12.23
2022-09-22T08:28:49.495Z,12.3
2022-09-22T08:29:49.419Z,12.29
2022-09-22T08:30:50.629Z,12.43
2022-09-22T08:31:51.543Z,12.4
2022-09-22T08:32:51.346Z,12.33
2022-09-22T08:33:51.980Z,12.43
2022-09-22T08:34:52.461Z,12.44
2022-09-22T08:35:52.726Z,12.3
2022-09-22T08:36:53.618Z,12.29
2022-09-22T08:37:53.830Z,12.2
2022-09-22T08:38:53.635Z,12.15
2022-09-22T08:39:54.271Z,12.08
2022-09-22T08:40:55.661Z,11.89
2022-09-22T08:41:55.939Z,11.81
2022-09-22T08:42:56.299Z,11.73
2022-09-22T08:43:57.501Z,11.65
2022-09-22T08:44:57.796Z,11.67
2022-09-22T08:45:58.306Z,11.73
2022-09-22T08:46:59.385Z,11.8
2022-09-22T08:47:59.628Z,11.77
2022-09-22T08:49:00.559Z,11.8
2022-09-22T08:50:00.214Z,11.8
2022-09-22T08:51:01.691Z,11.85
2022-09-22T08:52:01.892Z,11.88
2022-09-22T08:53:03.105Z,11.89
2022-09-22T08:54:09.030Z,11.88
2022-09-22T08:55:04.158Z,11.95
2022-09-22T08:56:05.385Z,12.08
2022-09-22T08:57:05.575Z,12.11
2022-09-22T08:58:05.834Z,12.2
2022-09-22T08:59:07.018Z,12.12
2022-09-22T09:00:07.255Z,12.23
2022-09-22T09:01:08.064Z,12.36
2022-09-22T09:02:08.599Z,12.33
2022-09-22T09:03:09.045Z,12.36
2022-09-22T09:04:09.067Z,12.44
2022-09-22T09:05:10.132Z,12.37
2022-09-22T09:06:11.165Z,12.44
2022-09-22T09:07:11.658Z,12.51
2022-09-22T09:08:11.580Z,12.47
2022-09-22T09:09:12.952Z,12.61
2022-09-22T09:10:12.987Z,12.69
2022-09-22T09:11:13.731Z,12.8
2022-09-22T09:12:13.507Z,12.87
2022-09-22T09:13:14.425Z,12.87
2022-09-22T09:14:14.910Z,13.06
2022-09-22T09:15:15.920Z,13.13
2022-09-22T09:16:17.031Z,13.19
2022-09-22T09:17:17.379Z,13.27
2022-09-22T09:18:17.567Z,13.24
2022-09-22T09:19:17.907Z,13.39
2022-09-22T09:20:18.816Z,13.39
2022-09-22T09:21:19.028Z,13.37
2022-09-22T09:22:19.255Z,13.45
2022-09-22T09:23:19.857Z,13.47
2022-09-22T09:25:34.886Z,13.36
2022-09-22T09:26:35.330Z,13.46
2022-09-22T09:27:35.972Z,13.24
2022-09-22T09:28:36.949Z,13.37
2022-09-22T09:29:38.162Z,13.33
2022-09-22T09:30:38.418Z,13.21
2022-09-22T09:31:38.987Z,13.19
2022-09-22T09:32:39.247Z,13.24
2022-09-22T09:33:39.496Z,13.28
2022-09-22T09:34:40.685Z,13.33
2022-09-22T09:35:45.475Z,13.45
2022-09-22T09:36:42.047Z,13.47
2022-09-22T09:37:42.535Z,13.6
2022-09-22T09:38:43.029Z,13.54
2022-09-22T09:39:43.522Z,13.55
2022-09-22T09:40:43.530Z,13.61
2022-09-22T09:41:44.759Z,13.68
2022-09-22T09:42:45.390Z,13.76
2022-09-22T09:43:45.919Z,13.79
2022-09-22T09:44:46.409Z,13.82
2022-09-22T09:45:46.305Z,13.89
2022-09-22T09:46:47.262Z,13.8
2022-09-22T09:47:47.238Z,13.98
2022-09-22T09:48:47.161Z,14.12
2022-09-22T09:49:53.366Z,14.26
2022-09-22T09:50:48.366Z,14.26
2022-09-22T09:51:49.336Z,14.31
2022-09-22T09:52:49.661Z,14.2
2022-09-22T09:53:52.977Z,14.12
2022-09-22T09:54:51.319Z,14.04
2022-09-22T09:55:52.522Z,14
2022-09-22T09:56:53.226Z,14.07
2022-09-22T09:57:53.836Z,14.07
2022-09-22T09:58:54.494Z,14.11
2022-09-22T09:59:55.278Z,14.4
2022-09-22T10:00:55.475Z,15.05
2022-09-22T10:01:56.980Z,15.66
2022-09-22T10:02:57.589Z,16.34
2022-09-22T10:03:57.671Z,16.98
2022-09-22T10:04:57.649Z,17.49
2022-09-22T10:05:58.590Z,18
2022-09-22T10:07:01.869Z,18.16
2022-09-22T10:08:00.356Z,18.57
2022-09-22T10:09:00.455Z,18.86
2022-09-22T10:10:01.664Z,19.15
2022-09-22T10:11:02.347Z,19.23
2022-09-22T10:12:02.861Z,19.47
2022-09-22T10:13:02.806Z,19.64
2022-09-22T10:14:04.081Z,19.92
2022-09-22T10:15:04.571Z,19.97
2022-09-22T10:16:05.108Z,20.04
2022-09-22T10:17:05.046Z,20.14
2022-09-22T10:18:05.102Z,20.36
2022-09-22T10:19:06.598Z,20.63
2022-09-22T10:20:06.232Z,20.9
2022-09-22T10:21:08.147Z,21.23
2022-09-22T10:22:08.055Z,21.37
2022-09-22T10:23:09.087Z,21.58
2022-09-22T10:24:09.801Z,21.58
2022-09-22T10:25:09.732Z,21.6
2022-09-22T10:26:10.416Z,21.66
2022-09-22T10:27:12.990Z,21.51
2022-09-22T10:28:12.227Z,21.47
2022-09-22T10:29:13.160Z,21.28
2022-09-22T10:30:13.800Z,21.23
2022-09-22T10:31:14.222Z,21.11
2022-09-22T10:32:15.350Z,21.3
2022-09-22T10:33:15.612Z,21.33
2022-09-22T10:34:16.538Z,21.37
2022-09-22T10:35:16.594Z,21.19
2022-09-22T10:36:18.347Z,21.05
2022-09-22T10:37:18.428Z,20.95
2022-09-22T10:38:18.914Z,20.89
2022-09-22T10:39:19.507Z,20.66
2022-09-22T10:40:20.682Z,20.4
2022-09-22T10:41:21.489Z,20.24
2022-09-22T10:42:21.689Z,19.97
2022-09-22T10:43:21.701Z,19.93
2022-09-22T10:44:49.571Z,20.22
2022-09-22T10:45:23.466Z,20.27
2022-09-22T10:46:24.379Z,20.48
2022-09-22T10:47:27.721Z,20.58
2022-09-22T10:48:25.332Z,20.36
2022-09-22T10:49:25.246Z,20.32
2022-09-22T10:50:26.227Z,20.14
2022-09-22T10:51:26.861Z,20.15
2022-09-22T10:52:27.508Z,20.12
2022-09-22T10:53:27.883Z,20.15
2022-09-22T10:54:29.087Z,20.15
2022-09-22T10:55:29.721Z,20.14
2022-09-22T10:56:30.241Z,20.21
2022-09-22T10:57:29.990Z,20.21
2022-09-22T10:58:31.320Z,20.17
2022-09-22T10:59:32.580Z,19.87
2022-09-22T11:00:38.427Z,19.52
2022-09-22T11:01:34.052Z,19.34
2022-09-22T11:02:34.217Z,19.16
2022-09-22T11:03:34.780Z,18.88
2022-09-22T11:04:35.399Z,18.42
2022-09-22T11:05:35.818Z,18.26
2022-09-22T11:06:36.462Z,18.13
2022-09-22T11:07:37.602Z,18.09
2022-09-22T11:08:37.526Z,17.93
2022-09-22T11:09:38.953Z,17.71
2022-09-22T11:10:38.882Z,17.52
2022-09-22T11:11:42.997Z,17.38
2022-09-22T11:12:39.927Z,17.42
2022-09-22T11:13:40.419Z,17.54
2022-09-22T11:14:40.638Z,17.69
2022-09-22T11:15:41.141Z,17.65
2022-09-22T11:16:41.212Z,17.66
2022-09-22T11:17:46.103Z,17.75
2022-09-22T11:18:45.765Z,17.69
2022-09-22T11:19:43.982Z,17.65
2022-09-22T11:20:44.907Z,17.69
2022-09-22T11:21:45.135Z,17.73
2022-09-22T11:22:45.621Z,17.8
2022-09-22T11:23:45.563Z,17.75
2022-09-22T11:24:46.472Z,17.75
2022-09-22T11:25:47.108Z,17.75
2022-09-22T11:26:48.326Z,17.75
2022-09-22T11:27:48.308Z,17.73
2022-09-22T11:28:57.214Z,17.87
2022-09-22T11:29:49.839Z,17.9
2022-09-22T11:30:50.483Z,17.86
2022-09-22T11:31:51.107Z,18
2022-09-22T11:32:51.619Z,17.97
2022-09-22T11:33:51.851Z,17.88
2022-09-22T11:34:52.780Z,17.73
2022-09-22T11:35:53.701Z,17.5
2022-09-22T11:36:57.301Z,17.52
2022-09-22T11:37:54.023Z,17.52
2022-09-22T11:38:54.342Z,17.68
2022-09-22T11:39:55.549Z,17.73
2022-09-22T11:41:57.576Z,17.94
2022-09-22T11:43:03.928Z,17.95
2022-09-22T11:44:04.467Z,18.06
2022-09-22T11:44:59.865Z,18.05
2022-09-22T11:46:00.441Z,18.16
2022-09-22T11:47:01.851Z,18.16
2022-09-22T11:48:01.885Z,18.15
2022-09-22T11:49:03.147Z,18.23
2022-09-22T11:50:04.063Z,18.18
2022-09-22T11:51:04.692Z,18.06
2022-09-22T11:52:04.918Z,18.06
2022-09-22T11:53:05.550Z,18.05
2022-09-22T11:54:06.112Z,17.95
2022-09-22T11:55:06.858Z,17.98
2022-09-22T11:56:06.524Z,18.11
2022-09-22T11:57:07.462Z,18.26
2022-09-22T11:58:08.168Z,18.26
2022-09-22T11:59:09.123Z,18.33
2022-09-22T12:00:10.042Z,18.46
2022-09-22T12:01:16.639Z,18.42
2022-09-22T12:02:11.766Z,18.51
2022-09-22T12:03:12.694Z,18.63
2022-09-22T12:04:12.345Z,18.71
2022-09-22T12:05:13.537Z,18.79
2022-09-22T12:06:13.769Z,18.86
2022-09-22T12:07:13.994Z,19.08
2022-09-22T12:08:15.026Z,19.24
2022-09-22T12:09:15.250Z,19.35
2022-09-22T12:10:16.175Z,19.38
2022-09-22T12:11:17.092Z,19.45
2022-09-22T12:12:18.073Z,19.15
2022-09-22T12:13:18.111Z,18.98
2022-09-22T12:14:19.311Z,18.85
2022-09-22T12:15:19.960Z,18.74
2022-09-22T12:16:20.894Z,18.73
2022-09-22T12:17:26.026Z,18.91
2022-09-22T12:18:22.095Z,18.94
2022-09-22T12:19:22.731Z,18.92
2022-09-22T12:20:23.078Z,19.01
2022-09-22T12:21:24.285Z,18.92
2022-09-22T12:22:25.199Z,19.15
2022-09-22T12:23:25.117Z,19.26
2022-09-22T12:24:26.354Z,19.37
2022-09-22T12:25:50.278Z,19.44
2022-09-22T12:26:27.920Z,19.45
2022-09-22T12:27:28.554Z,19.45
2022-09-22T12:28:28.726Z,19.55
2022-09-22T12:29:29.352Z,19.74
2022-09-22T12:30:30.160Z,19.64
2022-09-22T12:31:30.751Z,19.78
2022-09-22T12:32:31.670Z,19.79
2022-09-22T12:33:31.890Z,19.99
2022-09-22T12:34:32.120Z,20.07
2022-09-22T12:35:36.043Z,20.29
2022-09-22T12:36:33.248Z,20.24
2022-09-22T12:37:33.463Z,20.37
2022-09-22T12:38:34.085Z,20.49
2022-09-22T12:39:34.311Z,20.68
2022-09-22T12:40:34.420Z,20.77
2022-09-22T12:41:34.812Z,20.89
2022-09-22T12:42:35.761Z,20.93
2022-09-22T12:43:35.667Z,20.89
2022-09-22T12:44:36.864Z,20.59
2022-09-22T12:45:37.482Z,20.5
2022-09-22T12:46:37.361Z,20.3
2022-09-22T12:47:38.267Z,20.26
2022-09-22T12:48:39.575Z,20.03
2022-09-22T12:49:39.839Z,19.89
2022-09-22T12:50:40.753Z,19.82
2022-09-22T12:51:41.110Z,19.79
2022-09-22T12:52:42.417Z,19.99
2022-09-22T12:53:49.316Z,19.94
2022-09-22T12:54:44.318Z,19.97
2022-09-22T12:55:44.939Z,20.03
2022-09-22T12:56:44.867Z,20.02
2022-09-22T12:57:45.912Z,20.02
2022-09-22T12:58:46.338Z,19.97
2022-09-22T12:59:46.973Z,19.97
2022-09-22T13:00:47.343Z,19.9
2022-09-22T13:01:47.852Z,19.99
2022-09-22T13:02:47.783Z,20.02
2022-09-22T13:03:48.440Z,19.97
2022-09-22T13:04:48.961Z,20.07
2022-09-22T13:05:52.766Z,20.17
2022-09-22T13:06:50.672Z,20.18
2022-09-22T13:07:51.628Z,20.04
2022-09-22T13:08:52.646Z,20.11
2022-09-22T13:09:53.294Z,19.96
2022-09-22T13:10:53.555Z,19.84
2022-09-22T13:11:54.759Z,20
2022-09-22T13:12:54.703Z,20.03
2022-09-22T13:13:55.930Z,20
2022-09-22T13:14:56.379Z,20.03
2022-09-22T13:15:57.009Z,19.84
2022-09-22T13:16:57.421Z,19.75
2022-09-22T13:17:57.167Z,19.67
2022-09-22T13:18:58.501Z,19.67